Time;durP1;ratioP1;P1;durP2;ratioP2;P2;SDS_P1;SDS_P2;PMS_P1;PMS_P2;Temp;Humidity;BMP_temperature;BMP_pressure;BME280_temperature;BME280_humidity;BME280_pressure;Samples;Min_cycle;Max_cycle;Signal;HPM_P1;HPM_P2
2022/06/14 00:01:18;;;;;;;;;;;;;;;;;;5127728;28;19973;-66
2022/06/14 00:03:44;;;;;;;;;;;;;;;;;;5127256;28;20010;-67
2022/06/14 00:06:10;;;;;;;;;;;;;;;;;;5127122;28;20341;-66
2022/06/14 00:08:36;;;;;;;;;;;;;;;;;;5127461;28;19965;-66
2022/06/14 00:11:02;;;;;;;;;;;;;;;;;;5125459;28;19924;-66
2022/06/14 00:13:28;;;;;;;;;;;;;;;;;;5124944;28;19928;-66
2022/06/14 00:15:54;;;;;;;;;;;;;;;;;;5127293;28;19924;-67
2022/06/14 00:18:20;;;;;;;;;;;;;;;;;;5127173;28;19930;-66
2022/06/14 00:20:46;;;;;;;;;;;;;;;;;;5125331;28;20737;-66
2022/06/14 00:23:12;;;;;;;;;;;;;;;;;;5126763;28;19930;-66
2022/06/14 00:25:38;;;;;;;;;;;;;;;;;;5126063;28;19930;-66
2022/06/14 00:28:04;;;;;;;;;;;;;;;;;;5126962;28;19928;-66
2022/06/14 00:30:30;;;;;;;;;;;;;;;;;;5125627;28;19930;-66
2022/06/14 00:32:56;;;;;;;;;;;;;;;;;;5125538;28;19924;-66
2022/06/14 00:35:22;;;;;;;;;;;;;;;;;;5130746;27;19923;-66
2022/06/14 00:37:48;;;;;;;;;;;;;;;;;;5126824;28;19946;-66
2022/06/14 00:40:14;;;;;;;;;;;;;;;;;;5124826;28;19973;-66
2022/06/14 00:42:40;;;;;;;;;;;;;;;;;;5126534;28;19923;-66
2022/06/14 00:45:06;;;;;;;;;;;;;;;;;;5126778;28;19977;-66
2022/06/14 00:47:32;;;;;;;;;;;;;;;;;;5126464;28;19931;-66
2022/06/14 00:49:58;;;;;;;;;;;;;;;;;;5126152;28;20530;-67
2022/06/14 00:52:24;;;;;;;;;;;;;;;;;;5126729;28;19935;-66
2022/06/14 00:54:50;;;;;;;;;;;;;;;;;;5126584;28;19924;-66
2022/06/14 00:57:18;;;;;;;;;;;;;;;;;;5126079;28;19931;-66
2022/06/14 00:59:44;;;;;;;;;;;;;;;;;;5135175;27;19949;-67
2022/06/14 01:02:10;;;;;;;;;;;;;;;;;;5126119;28;19924;-66
2022/06/14 01:04:36;;;;;;;;;;;;;;;;;;5123693;28;19931;-66
2022/06/14 01:07:02;;;;;;;;;;;;;;;;;;5126200;28;19923;-66
2022/06/14 01:09:28;;;;;;;;;;;;;;;;;;5125931;28;19923;-66
2022/06/14 01:11:54;;;;;;;;;;;;;;;;;;5125606;28;19945;-67
2022/06/14 01:14:20;;;;;;;;;;;;;;;;;;5125999;28;20019;-66
2022/06/14 01:16:46;;;;;;;;;;;;;;;;;;5125822;28;19985;-66
2022/06/14 01:19:12;;;;;;;;;;;;;;;;;;5124945;28;20014;-66
2022/06/14 01:21:38;;;;;;;;;;;;;;;;;;5125711;28;19919;-66
2022/06/14 01:24:04;;;;;;;;;;;;;;;;;;5127964;27;19934;-66
2022/06/14 01:26:30;;;;;;;;;;;;;;;;;;5140177;27;19923;-66
2022/06/14 01:28:56;;;;;;;;;;;;;;;;;;5126493;27;19920;-66
2022/06/14 01:31:22;;;;;;;;;;;;;;;;;;5125959;28;19924;-66
2022/06/14 01:33:48;;;;;;;;;;;;;;;;;;5125055;28;19924;-66
2022/06/14 01:36:14;;;;;;;;;;;;;;;;;;5125577;28;19928;-67
2022/06/14 01:38:40;;;;;;;;;;;;;;;;;;5125718;28;19928;-66
2022/06/14 01:41:06;;;;;;;;;;;;;;;;;;5124308;28;19920;-67
2022/06/14 01:43:32;;;;;;;;;;;;;;;;;;5124546;28;19931;-66
2022/06/14 01:45:58;;;;;;;;;;;;;;;;;;5125748;28;19924;-67
2022/06/14 01:48:24;;;;;;;;;;;;;;;;;;5128577;28;19920;-66
2022/06/14 01:53:35;;;;;;;;;;;;;;;;;;5113318;28;19931;-66
2022/06/14 01:56:01;;;;;;;;;;;;;;;;;;5125556;28;19924;-67
2022/06/14 01:58:27;;;;;;;;;;;;;;;;;;5123436;28;19923;-67
2022/06/14 02:00:53;;;;;;;;;;;;;;;;;;5125366;28;19939;-67
2022/06/14 02:06:04;;;;;;;;;;;;;;;;;;5125456;28;20457;-66
2022/06/14 02:08:30;;;;;;;;;;;;;;;;;;5125468;28;19927;-67
2022/06/14 02:10:56;;;;;;;;;;;;;;;;;;5125585;28;19919;-66
2022/06/14 02:13:22;;;;;;;;;;;;;;;;;;5119385;28;19932;-66
2022/06/14 02:15:48;;;;;;;;;;;;;;;;;;5125371;28;19985;-66
2022/06/14 02:18:14;;;;;;;;;;;;;;;;;;5125157;28;19924;-65
2022/06/14 02:20:40;;;;;;;;;;;;;;;;;;5124031;28;19924;-66
2022/06/14 02:23:06;;;;;;;;;;;;;;;;;;5127468;28;19928;-66
2022/06/14 02:25:32;;;;;;;;;;;;;;;;;;5127997;27;19969;-66
2022/06/14 02:27:58;;;;;;;;;;;;;;;;;;5126689;28;19924;-65
2022/06/14 02:30:24;;;;;;;;;;;;;;;;;;5129119;28;19927;-66
2022/06/14 02:32:50;;;;;;;;;;;;;;;;;;5128960;28;19924;-65
2022/06/14 02:35:16;;;;;;;;;;;;;;;;;;5127542;28;20024;-66
2022/06/14 02:37:42;;;;;;;;;;;;;;;;;;5128255;28;20342;-66
2022/06/14 02:40:08;;;;;;;;;;;;;;;;;;5128982;28;19924;-66
2022/06/14 02:42:34;;;;;;;;;;;;;;;;;;5128514;27;19927;-66
2022/06/14 02:45:00;;;;;;;;;;;;;;;;;;5119925;28;19920;-67
2022/06/14 02:47:26;;;;;;;;;;;;;;;;;;5128617;28;19924;-67
2022/06/14 02:49:52;;;;;;;;;;;;;;;;;;5128689;28;19924;-67
2022/06/14 02:52:18;;;;;;;;;;;;;;;;;;5127172;28;19928;-67
2022/06/14 02:54:44;;;;;;;;;;;;;;;;;;5128812;28;19987;-67
2022/06/14 02:57:10;;;;;;;;;;;;;;;;;;5128426;28;19930;-66
2022/06/14 02:59:36;;;;;;;;;;;;;;;;;;5125935;28;19967;-67
2022/06/14 03:02:04;;;;;;;;;;;;;;;;;;5128101;28;20416;-67
2022/06/14 03:04:30;;;;;;;;;;;;;;;;;;5126993;28;19945;-66
2022/06/14 03:06:58;;;;;;;;;;;;;;;;;;5126636;28;19923;-66
2022/06/14 03:09:24;;;;;;;;;;;;;;;;;;5123600;28;19923;-66
2022/06/14 03:11:50;;;;;;;;;;;;;;;;;;5128286;28;19946;-66
2022/06/14 03:14:16;;;;;;;;;;;;;;;;;;5129463;27;19938;-66
2022/06/14 03:16:42;;;;;;;;;;;;;;;;;;5127354;28;19928;-66
2022/06/14 03:19:08;;;;;;;;;;;;;;;;;;5128189;28;19924;-66
2022/06/14 03:21:35;;;;;;;;;;;;;;;;;;5127974;28;19931;-66
2022/06/14 03:24:01;;;;;;;;;;;;;;;;;;5128190;28;19920;-66
2022/06/14 03:26:27;;;;;;;;;;;;;;;;;;5127978;28;20279;-67
2022/06/14 03:28:53;;;;;;;;;;;;;;;;;;5127872;28;19935;-67
2022/06/14 03:31:19;;;;;;;;;;;;;;;;;;5127015;28;19933;-67
2022/06/14 03:33:45;;;;;;;;;;;;;;;;;;5126522;28;20000;-66
2022/06/14 03:36:11;;;;;;;;;;;;;;;;;;5128011;28;20286;-66
2022/06/14 03:38:37;;;;;;;;;;;;;;;;;;5126661;28;19930;-67
2022/06/14 03:41:03;;;;;;;;;;;;;;;;;;5127846;28;19928;-67
2022/06/14 03:43:29;;;;;;;;;;;;;;;;;;5134919;27;19920;-67
2022/06/14 03:45:55;;;;;;;;;;;;;;;;;;5132643;27;19931;-67
2022/06/14 03:48:21;;;;;;;;;;;;;;;;;;5140501;27;19945;-67
2022/06/14 03:50:47;;;;;;;;;;;;;;;;;;5128162;27;19924;-67
2022/06/14 03:53:13;;;;;;;;;;;;;;;;;;5127760;28;20316;-68
2022/06/14 03:55:39;;;;;;;;;;;;;;;;;;5127528;28;19920;-68
2022/06/14 03:58:06;;;;;;;;;;;;;;;;;;5125840;28;19963;-66
2022/06/14 04:00:32;;;;;;;;;;;;;;;;;;5126841;28;19923;-67
2022/06/14 04:02:58;;;;;;;;;;;;;;;;;;5127291;28;20092;-67
2022/06/14 04:05:24;;;;;;;;;;;;;;;;;;5127324;28;20124;-67
2022/06/14 04:07:50;;;;;;;;;;;;;;;;;;5125979;28;19923;-67
2022/06/14 04:10:16;;;;;;;;;;;;;;;;;;5125839;28;19923;-67
2022/06/14 04:12:42;;;;;;;;;;;;;;;;;;5127503;27;20218;-66
2022/06/14 04:15:09;;;;;;;;;;;;;;;;;;5125831;28;19924;-66
2022/06/14 04:17:35;;;;;;;;;;;;;;;;;;5126137;27;19974;-67
2022/06/14 04:20:01;;;;;;;;;;;;;;;;;;5137108;27;20450;-67
2022/06/14 04:22:27;;;;;;;;;;;;;;;;;;5125754;28;19955;-67
2022/06/14 04:24:53;;;;;;;;;;;;;;;;;;5112671;28;19935;-67
2022/06/14 04:27:19;;;;;;;;;;;;;;;;;;5125436;28;19931;-67
2022/06/14 04:29:45;;;;;;;;;;;;;;;;;;5126792;28;19919;-67
2022/06/14 04:32:11;;;;;;;;;;;;;;;;;;5124359;28;19931;-67
2022/06/14 04:34:37;;;;;;;;;;;;;;;;;;5123098;28;19924;-67
2022/06/14 04:37:03;;;;;;;;;;;;;;;;;;5126212;28;20397;-67
2022/06/14 04:39:29;;;;;;;;;;;;;;;;;;5127543;27;19995;-67
2022/06/14 04:41:55;;;;;;;;;;;;;;;;;;5126692;28;19967;-67
2022/06/14 04:44:21;;;;;;;;;;;;;;;;;;5130153;27;19975;-67
2022/06/14 04:46:47;;;;;;;;;;;;;;;;;;5124359;28;19924;-67
2022/06/14 04:49:13;;;;;;;;;;;;;;;;;;5126990;27;19977;-67
2022/06/14 04:51:39;;;;;;;;;;;;;;;;;;5124202;27;20400;-68
2022/06/14 04:54:05;;;;;;;;;;;;;;;;;;5120390;28;19932;-66
2022/06/14 04:56:32;;;;;;;;;;;;;;;;;;5116895;27;19948;-66
2022/06/14 04:58:57;;;;;;;;;;;;;;;;;;5123313;27;19944;-66
2022/06/14 05:01:23;;;;;;;;;;;;;;;;;;5138010;27;19966;-66
2022/06/14 05:03:49;;;;;;;;;;;;;;;;;;5129368;27;19924;-67
2022/06/14 05:06:15;;;;;;;;;;;;;;;;;;5124917;28;19931;-67
2022/06/14 05:08:41;;;;;;;;;;;;;;;;;;5125406;28;19924;-67
2022/06/14 05:11:08;;;;;;;;;;;;;;;;;;5125809;28;20015;-68
2022/06/14 05:13:34;;;;;;;;;;;;;;;;;;5125883;28;19931;-67
2022/06/14 05:16:00;;;;;;;;;;;;;;;;;;5125883;28;20117;-67
2022/06/14 05:18:26;;;;;;;;;;;;;;;;;;5125780;28;19924;-67
2022/06/14 05:20:52;;;;;;;;;;;;;;;;;;5124889;28;19927;-67
2022/06/14 05:23:18;;;;;;;;;;;;;;;;;;5121819;28;19933;-67
2022/06/14 05:25:46;;;;;;;;;;;;;;;;;;5152069;27;20298;-67
2022/06/14 05:28:12;;;;;;;;;;;;;;;;;;5121148;28;19945;-67
2022/06/14 05:30:38;;;;;;;;;;;;;;;;;;5125572;27;19932;-67
2022/06/14 05:33:04;;;;;;;;;;;;;;;;;;5124787;28;19928;-67
2022/06/14 05:35:30;;;;;;;;;;;;;;;;;;5125582;28;19946;-67
2022/06/14 05:37:58;;;;;;;;;;;;;;;;;;5126535;27;20036;-67
2022/06/14 05:40:25;;;;;;;;;;;;;;;;;;5120670;28;21823;-66
2022/06/14 05:42:51;;;;;;;;;;;;;;;;;;5127856;28;19931;-67
2022/06/14 05:45:18;;;;;;;;;;;;;;;;;;5125461;28;19928;-66
2022/06/14 05:47:44;;;;;;;;;;;;;;;;;;5125515;28;19991;-65
2022/06/14 05:50:11;;;;;;;;;;;;;;;;;;5125566;28;19939;-65
2022/06/14 05:52:37;;;;;;;;;;;;;;;;;;5125407;28;20378;-66
2022/06/14 05:55:03;;;;;;;;;;;;;;;;;;5125045;28;19995;-66
2022/06/14 05:57:29;;;;;;;;;;;;;;;;;;5128363;28;19924;-67
2022/06/14 05:59:55;;;;;;;;;;;;;;;;;;5132200;27;19923;-66
2022/06/14 06:02:21;;;;;;;;;;;;;;;;;;5132377;27;19923;-66
2022/06/14 06:04:47;;;;;;;;;;;;;;;;;;5129723;28;19931;-66
2022/06/14 06:07:13;;;;;;;;;;;;;;;;;;5128309;28;19931;-67
2022/06/14 06:09:39;;;;;;;;;;;;;;;;;;5126889;28;19928;-66
2022/06/14 06:12:05;;;;;;;;;;;;;;;;;;5129175;28;19935;-66
2022/06/14 06:14:31;;;;;;;;;;;;;;;;;;5129228;28;19923;-66
2022/06/14 06:17:03;;;;;;;;;;;;;;;;;;5129143;28;19923;-66
2022/06/14 06:19:29;;;;;;;;;;;;;;;;;;5129300;28;19993;-66
2022/06/14 06:21:55;;;;;;;;;;;;;;;;;;5128034;28;20371;-66
2022/06/14 06:24:21;;;;;;;;;;;;;;;;;;5127812;28;19935;-67
2022/06/14 06:26:47;;;;;;;;;;;;;;;;;;5128943;28;19976;-66
2022/06/14 06:29:13;;;;;;;;;;;;;;;;;;5133177;27;19927;-67
2022/06/14 06:31:39;;;;;;;;;;;;;;;;;;5128806;28;19934;-67
2022/06/14 06:34:05;;;;;;;;;;;;;;;;;;5128887;28;19931;-66
2022/06/14 06:36:31;;;;;;;;;;;;;;;;;;5128897;28;19927;-66
2022/06/14 06:38:57;;;;;;;;;;;;;;;;;;5128686;28;19931;-67
2022/06/14 06:44:07;;;;;;;;;;;;;;;;;;5114807;28;20400;-66
2022/06/14 06:46:33;;;;;;;;;;;;;;;;;;5126684;28;19931;-66
2022/06/14 06:48:59;;;;;;;;;;;;;;;;;;5128755;28;19924;-66
2022/06/14 06:51:25;;;;;;;;;;;;;;;;;;5128716;28;19931;-66
2022/06/14 06:53:51;;;;;;;;;;;;;;;;;;5128979;27;19924;-69
2022/06/14 06:56:17;;;;;;;;;;;;;;;;;;5136646;27;19924;-67
2022/06/14 06:58:43;;;;;;;;;;;;;;;;;;5128498;28;19927;-66
2022/06/14 07:01:09;;;;;;;;;;;;;;;;;;5128720;28;19927;-66
2022/06/14 07:03:35;;;;;;;;;;;;;;;;;;5128471;28;19962;-68
2022/06/14 07:06:01;;;;;;;;;;;;;;;;;;5128349;28;19924;-67
2022/06/14 07:08:27;;;;;;;;;;;;;;;;;;5133624;27;19931;-66
2022/06/14 07:10:53;;;;;;;;;;;;;;;;;;5131758;27;19965;-67
2022/06/14 07:13:19;;;;;;;;;;;;;;;;;;5128320;28;19928;-67
2022/06/14 07:15:45;;;;;;;;;;;;;;;;;;5128338;28;19923;-67
2022/06/14 07:18:11;;;;;;;;;;;;;;;;;;5137283;27;19924;-67
2022/06/14 07:20:37;;;;;;;;;;;;;;;;;;5128436;28;19955;-67
2022/06/14 07:23:03;;;;;;;;;;;;;;;;;;5128005;28;19962;-66
2022/06/14 07:25:28;;;;;;;;;;;;;;;;;;5126387;28;19973;-66
2022/06/14 07:27:54;;;;;;;;;;;;;;;;;;5126226;28;19995;-66
2022/06/14 07:30:21;;;;;;;;;;;;;;;;;;5126447;28;19923;-67
2022/06/14 07:32:47;;;;;;;;;;;;;;;;;;5133552;27;19923;-66
2022/06/14 07:35:12;;;;;;;;;;;;;;;;;;5125764;28;19931;-66
2022/06/14 07:37:38;;;;;;;;;;;;;;;;;;5128007;27;19959;-66
2022/06/14 07:40:04;;;;;;;;;;;;;;;;;;5139539;27;20337;-66
2022/06/14 07:42:30;;;;;;;;;;;;;;;;;;5132472;27;19923;-66
2022/06/14 07:44:56;;;;;;;;;;;;;;;;;;5128616;27;19930;-66
2022/06/14 07:47:22;;;;;;;;;;;;;;;;;;5130448;27;20359;-66
2022/06/14 07:49:48;;;;;;;;;;;;;;;;;;5128605;27;19927;-66
2022/06/14 07:52:14;;;;;;;;;;;;;;;;;;5126177;28;20304;-66
2022/06/14 07:54:40;;;;;;;;;;;;;;;;;;5134225;27;19931;-67
2022/06/14 07:57:06;;;;;;;;;;;;;;;;;;5127204;28;19946;-66
2022/06/14 07:59:32;;;;;;;;;;;;;;;;;;5125596;28;19988;-66
2022/06/14 08:01:58;;;;;;;;;;;;;;;;;;5128501;27;20011;-67
2022/06/14 08:04:24;;;;;;;;;;;;;;;;;;5123189;27;19931;-66
2022/06/14 08:06:50;;;;;;;;;;;;;;;;;;5131565;27;19923;-66
2022/06/14 08:09:16;;;;;;;;;;;;;;;;;;5134498;27;19923;-66
2022/06/14 08:11:41;;;;;;;;;;;;;;;;;;5129402;27;20018;-66
2022/06/14 08:14:08;;;;;;;;;;;;;;;;;;5126573;28;19923;-66
2022/06/14 08:16:34;;;;;;;;;;;;;;;;;;5142894;27;19946;-66
2022/06/14 08:19:00;;;;;;;;;;;;;;;;;;5142313;27;19923;-67
2022/06/14 08:21:26;;;;;;;;;;;;;;;;;;5128345;27;19924;-66
2022/06/14 08:23:52;;;;;;;;;;;;;;;;;;5125327;28;19927;-66
2022/06/14 08:26:18;;;;;;;;;;;;;;;;;;5136189;27;19924;-66
2022/06/14 08:28:44;;;;;;;;;;;;;;;;;;5131939;27;19924;-67
2022/06/14 08:31:10;;;;;;;;;;;;;;;;;;5132858;27;20006;-66
2022/06/14 08:33:36;;;;;;;;;;;;;;;;;;5133330;27;19924;-67
2022/06/14 08:36:02;;;;;;;;;;;;;;;;;;5128533;27;19920;-67
2022/06/14 08:38:28;;;;;;;;;;;;;;;;;;5128485;27;19938;-67
2022/06/14 08:40:54;;;;;;;;;;;;;;;;;;5124584;27;19931;-66
2022/06/14 08:43:20;;;;;;;;;;;;;;;;;;5131516;27;19924;-67
2022/06/14 08:45:46;;;;;;;;;;;;;;;;;;5127453;27;19992;-67
2022/06/14 08:48:12;;;;;;;;;;;;;;;;;;5134676;27;19924;-67
2022/06/14 08:50:38;;;;;;;;;;;;;;;;;;5129418;27;19927;-66
2022/06/14 08:53:04;;;;;;;;;;;;;;;;;;5127042;27;19924;-66
2022/06/14 08:55:30;;;;;;;;;;;;;;;;;;5120158;27;20272;-66
2022/06/14 08:57:56;;;;;;;;;;;;;;;;;;5131476;27;19943;-66
2022/06/14 09:00:22;;;;;;;;;;;;;;;;;;5130024;27;19928;-67
2022/06/14 09:02:48;;;;;;;;;;;;;;;;;;5126813;27;19930;-67
2022/06/14 09:05:14;;;;;;;;;;;;;;;;;;5120144;27;19930;-66
2022/06/14 09:07:40;;;;;;;;;;;;;;;;;;5133255;27;19935;-67
2022/06/14 09:10:06;;;;;;;;;;;;;;;;;;5123336;27;19927;-68
2022/06/14 09:12:32;;;;;;;;;;;;;;;;;;5124545;27;19928;-67
2022/06/14 09:14:58;;;;;;;;;;;;;;;;;;5122356;27;19980;-67
2022/06/14 09:17:24;;;;;;;;;;;;;;;;;;5136007;27;20307;-66
2022/06/14 09:19:50;;;;;;;;;;;;;;;;;;5131721;27;19979;-66
2022/06/14 09:22:16;;;;;;;;;;;;;;;;;;5127351;27;19927;-66
2022/06/14 09:24:42;;;;;;;;;;;;;;;;;;5124111;27;19928;-66
2022/06/14 09:27:08;;;;;;;;;;;;;;;;;;5127472;27;19931;-66
2022/06/14 09:29:34;;;;;;;;;;;;;;;;;;5132656;27;19923;-66
2022/06/14 09:32:00;;;;;;;;;;;;;;;;;;5130908;27;20305;-67
2022/06/14 09:34:26;;;;;;;;;;;;;;;;;;5133856;27;19945;-67
2022/06/14 09:36:52;;;;;;;;;;;;;;;;;;5129631;27;19924;-67
2022/06/14 09:39:18;;;;;;;;;;;;;;;;;;5134389;28;19931;-67
2022/06/14 09:41:44;;;;;;;;;;;;;;;;;;5139761;27;19923;-67
2022/06/14 09:44:10;;;;;;;;;;;;;;;;;;5132695;28;19931;-67
2022/06/14 09:46:36;;;;;;;;;;;;;;;;;;5131949;28;19931;-67
2022/06/14 09:49:04;;;;;;;;;;;;;;;;;;5109831;28;19973;-67
2022/06/14 09:51:30;;;;;;;;;;;;;;;;;;5133699;28;19923;-67
2022/06/14 09:53:56;;;;;;;;;;;;;;;;;;5132738;28;19931;-67
2022/06/14 09:56:22;;;;;;;;;;;;;;;;;;5122629;27;19978;-67
2022/06/14 09:58:48;;;;;;;;;;;;;;;;;;5129094;27;20379;-67
2022/06/14 10:01:14;;;;;;;;;;;;;;;;;;5125933;28;19938;-67
2022/06/14 10:03:40;;;;;;;;;;;;;;;;;;5125571;27;19924;-67
2022/06/14 10:06:06;;;;;;;;;;;;;;;;;;5134888;28;19930;-67
2022/06/14 10:08:32;;;;;;;;;;;;;;;;;;5122140;28;19924;-67
2022/06/14 10:10:58;;;;;;;;;;;;;;;;;;5129615;28;19931;-67
2022/06/14 10:13:24;;;;;;;;;;;;;;;;;;5120392;28;19928;-67
2022/06/14 10:15:50;;;;;;;;;;;;;;;;;;5124062;28;20345;-67
2022/06/14 10:18:16;;;;;;;;;;;;;;;;;;5124063;28;19924;-67
2022/06/14 10:20:42;;;;;;;;;;;;;;;;;;5132678;28;19923;-67
2022/06/14 10:23:08;;;;;;;;;;;;;;;;;;5147267;27;19924;-67
2022/06/14 10:25:34;;;;;;;;;;;;;;;;;;5124676;28;19970;-66
2022/06/14 10:28:12;;;;;;;;;;;;;;;;;;5129816;28;19923;-67
2022/06/14 10:30:38;;;;;;;;;;;;;;;;;;5125974;28;20303;-67
2022/06/14 10:33:04;;;;;;;;;;;;;;;;;;5125036;28;19986;-67
2022/06/14 10:35:30;;;;;;;;;;;;;;;;;;5122388;28;19939;-64
2022/06/14 10:37:56;;;;;;;;;;;;;;;;;;5133650;28;19923;-65
2022/06/14 10:40:22;;;;;;;;;;;;;;;;;;5129103;28;19927;-65
2022/06/14 10:42:48;;;;;;;;;;;;;;;;;;5137723;27;19927;-63
2022/06/14 10:45:14;;;;;;;;;;;;;;;;;;5134622;27;19930;-63
2022/06/14 10:47:40;;;;;;;;;;;;;;;;;;5138154;27;19932;-64
2022/06/14 10:50:06;;;;;;;;;;;;;;;;;;5151957;27;19934;-63
2022/06/14 10:52:32;;;;;;;;;;;;;;;;;;5132685;27;19966;-62
2022/06/14 10:54:58;;;;;;;;;;;;;;;;;;5140082;27;19955;-65
2022/06/14 10:57:24;;;;;;;;;;;;;;;;;;5135992;27;19963;-65
2022/06/14 10:59:50;;;;;;;;;;;;;;;;;;5130376;27;20014;-66
2022/06/14 11:02:16;;;;;;;;;;;;;;;;;;5127655;28;20052;-66
2022/06/14 11:04:42;;;;;;;;;;;;;;;;;;5129594;27;20399;-66
2022/06/14 11:07:08;;;;;;;;;;;;;;;;;;5129778;27;19920;-66
2022/06/14 11:09:34;;;;;;;;;;;;;;;;;;5131633;27;19924;-67
2022/06/14 11:12:00;;;;;;;;;;;;;;;;;;5134972;27;19931;-66
2022/06/14 11:14:26;;;;;;;;;;;;;;;;;;5127734;28;19924;-66
2022/06/14 11:16:52;;;;;;;;;;;;;;;;;;5126026;27;19931;-66
2022/06/14 11:19:28;;;;;;;;;;;;;;;;;;5133292;27;19924;-65
2022/06/14 11:21:54;;;;;;;;;;;;;;;;;;5131230;27;19927;-65
2022/06/14 11:24:20;;;;;;;;;;;;;;;;;;5124636;27;20034;-64
2022/06/14 11:26:46;;;;;;;;;;;;;;;;;;5131357;27;19979;-66
2022/06/14 11:29:12;;;;;;;;;;;;;;;;;;5135350;27;19971;-64
2022/06/14 11:31:38;;;;;;;;;;;;;;;;;;5129985;27;19924;-64
2022/06/14 11:34:04;;;;;;;;;;;;;;;;;;5137137;27;19949;-73
2022/06/14 11:36:30;;;;;;;;;;;;;;;;;;5138215;27;19923;-66
2022/06/14 11:38:56;;;;;;;;;;;;;;;;;;5151125;27;19947;-65
2022/06/14 11:41:22;;;;;;;;;;;;;;;;;;5131329;27;19927;-66
2022/06/14 11:43:48;;;;;;;;;;;;;;;;;;5117830;27;19934;-67
2022/06/14 11:46:14;;;;;;;;;;;;;;;;;;5138002;27;19927;-67
2022/06/14 11:48:40;;;;;;;;;;;;;;;;;;5132409;27;19927;-67
2022/06/14 11:51:07;;;;;;;;;;;;;;;;;;5129734;27;20015;-67
2022/06/14 11:53:33;;;;;;;;;;;;;;;;;;5123332;27;20318;-65
2022/06/14 11:56:02;;;;;;;;;;;;;;;;;;5137949;27;19963;-63
2022/06/14 11:58:28;;;;;;;;;;;;;;;;;;5129966;27;19931;-63
2022/06/14 12:00:54;;;;;;;;;;;;;;;;;;5132127;27;19923;-63
2022/06/14 12:03:20;;;;;;;;;;;;;;;;;;5126124;27;19955;-62
2022/06/14 12:05:46;;;;;;;;;;;;;;;;;;5130400;27;19930;-62
2022/06/14 12:08:12;;;;;;;;;;;;;;;;;;5125764;28;19924;-63
2022/06/14 12:10:38;;;;;;;;;;;;;;;;;;5137222;27;19927;-62
2022/06/14 12:13:04;;;;;;;;;;;;;;;;;;5125443;27;19932;-62
2022/06/14 12:15:30;;;;;;;;;;;;;;;;;;5121888;27;19924;-65
2022/06/14 12:17:56;;;;;;;;;;;;;;;;;;5127735;27;19924;-65
2022/06/14 12:20:21;;;;;;;;;;;;;;;;;;5126503;28;19995;-65
2022/06/14 12:22:47;;;;;;;;;;;;;;;;;;5125445;27;19924;-65
2022/06/14 12:27:58;;;;;;;;;;;;;;;;;;5126346;28;19927;-65
2022/06/14 12:30:24;;;;;;;;;;;;;;;;;;5126850;28;19932;-65
2022/06/14 12:32:50;;;;;;;;;;;;;;;;;;5126652;28;19924;-65
2022/06/14 12:35:16;;;;;;;;;;;;;;;;;;5126231;28;19931;-65
2022/06/14 12:37:42;;;;;;;;;;;;;;;;;;5126623;28;19995;-65
2022/06/14 12:40:08;;;;;;;;;;;;;;;;;;5126503;28;19932;-65
2022/06/14 12:42:35;;;;;;;;;;;;;;;;;;5126007;28;19959;-65
2022/06/14 12:45:01;;;;;;;;;;;;;;;;;;5159859;27;19924;-65
2022/06/14 12:47:27;;;;;;;;;;;;;;;;;;5126234;28;19931;-65
2022/06/14 12:49:53;;;;;;;;;;;;;;;;;;5126521;28;19923;-65
2022/06/14 12:52:19;;;;;;;;;;;;;;;;;;5126109;28;20334;-65
2022/06/14 12:54:45;;;;;;;;;;;;;;;;;;5125592;28;19930;-65
2022/06/14 12:57:11;;;;;;;;;;;;;;;;;;5137163;27;19970;-66
2022/06/14 12:59:37;;;;;;;;;;;;;;;;;;5138546;27;19945;-65
2022/06/14 13:02:03;;;;;;;;;;;;;;;;;;5126244;28;19935;-65
2022/06/14 13:04:29;;;;;;;;;;;;;;;;;;5127173;27;19932;-65
2022/06/14 13:06:55;;;;;;;;;;;;;;;;;;5132662;27;19931;-66
2022/06/14 13:09:21;;;;;;;;;;;;;;;;;;5126083;28;19931;-65
2022/06/14 13:11:49;;;;;;;;;;;;;;;;;;5125893;28;19923;-65
2022/06/14 13:14:15;;;;;;;;;;;;;;;;;;5125574;28;19923;-65
2022/06/14 13:16:41;;;;;;;;;;;;;;;;;;5125566;28;19931;-65
2022/06/14 13:19:07;;;;;;;;;;;;;;;;;;5124541;28;19963;-65
2022/06/14 13:21:33;;;;;;;;;;;;;;;;;;5125648;27;19991;-65
2022/06/14 13:24:00;;;;;;;;;;;;;;;;;;5124340;27;19923;-65
2022/06/14 13:26:26;;;;;;;;;;;;;;;;;;5125129;28;19924;-65
2022/06/14 13:28:52;;;;;;;;;;;;;;;;;;5123886;28;19924;-65
2022/06/14 13:31:20;;;;;;;;;;;;;;;;;;5122826;27;19924;-65
2022/06/14 13:33:45;;;;;;;;;;;;;;;;;;5125622;28;19924;-65
2022/06/14 13:36:12;;;;;;;;;;;;;;;;;;5126453;27;19973;-66
2022/06/14 13:38:39;;;;;;;;;;;;;;;;;;5122905;28;19934;-66
2022/06/14 13:41:05;;;;;;;;;;;;;;;;;;5120528;28;19923;-65
2022/06/14 13:43:32;;;;;;;;;;;;;;;;;;5123644;28;20000;-65
2022/06/14 13:45:58;;;;;;;;;;;;;;;;;;5124345;28;19930;-66
2022/06/14 13:48:23;;;;;;;;;;;;;;;;;;5123576;28;19983;-65
2022/06/14 13:50:51;;;;;;;;;;;;;;;;;;5125112;28;19924;-65
2022/06/14 13:53:17;;;;;;;;;;;;;;;;;;5125363;28;19944;-64
2022/06/14 13:55:43;;;;;;;;;;;;;;;;;;5135339;27;19999;-65
2022/06/14 13:58:09;;;;;;;;;;;;;;;;;;5125295;28;19966;-65
2022/06/14 14:00:35;;;;;;;;;;;;;;;;;;5124504;28;19946;-65
2022/06/14 14:03:01;;;;;;;;;;;;;;;;;;5124375;27;19931;-65
2022/06/14 14:05:27;;;;;;;;;;;;;;;;;;5124974;28;19924;-65
2022/06/14 14:07:53;;;;;;;;;;;;;;;;;;5125483;28;19931;-66
2022/06/14 14:10:19;;;;;;;;;;;;;;;;;;5123763;28;20035;-65
2022/06/14 14:12:45;;;;;;;;;;;;;;;;;;5124728;28;19974;-66
2022/06/14 14:15:13;;;;;;;;;;;;;;;;;;5123171;27;20569;-65
2022/06/14 14:17:39;;;;;;;;;;;;;;;;;;5122441;28;19931;-66
2022/06/14 14:20:05;;;;;;;;;;;;;;;;;;5126789;28;19927;-65
2022/06/14 14:22:31;;;;;;;;;;;;;;;;;;5132107;27;20023;-65
2022/06/14 14:24:57;;;;;;;;;;;;;;;;;;5133082;27;19928;-65
2022/06/14 14:27:23;;;;;;;;;;;;;;;;;;5127748;28;19945;-65
2022/06/14 14:29:48;;;;;;;;;;;;;;;;;;5122886;28;19924;-65
2022/06/14 14:32:14;;;;;;;;;;;;;;;;;;5122187;28;19965;-65
2022/06/14 14:34:40;;;;;;;;;;;;;;;;;;5125337;28;20225;-65
2022/06/14 14:37:06;;;;;;;;;;;;;;;;;;5126729;28;19924;-65
2022/06/14 14:39:32;;;;;;;;;;;;;;;;;;5127596;28;19928;-65
2022/06/14 14:41:58;;;;;;;;;;;;;;;;;;5127746;27;20477;-65
2022/06/14 14:44:24;;;;;;;;;;;;;;;;;;5124267;27;19931;-67
2022/06/14 14:46:50;;;;;;;;;;;;;;;;;;5127076;27;19924;-66
2022/06/14 14:49:16;;;;;;;;;;;;;;;;;;5127080;28;19924;-66
2022/06/14 14:51:44;;;;;;;;;;;;;;;;;;5126764;27;19931;-63
2022/06/14 14:54:11;;;;;;;;;;;;;;;;;;5126917;27;19950;-65
2022/06/14 14:56:37;;;;;;;;;;;;;;;;;;5120508;27;19950;-65
2022/06/14 14:59:03;;;;;;;;;;;;;;;;;;5119378;28;19931;-64
2022/06/14 15:06:58;;;;;;;;;;;;;;;;;;5131822;27;19952;-64
2022/06/14 15:09:25;;;;;;;;;;;;;;;;;;5124090;27;19920;-65
2022/06/14 15:11:51;;;;;;;;;;;;;;;;;;5113285;27;19936;-65
2022/06/14 15:14:17;;;;;;;;;;;;;;;;;;5122286;27;19943;-64
2022/06/14 15:16:43;;;;;;;;;;;;;;;;;;5141232;27;19927;-64
2022/06/14 15:21:54;;;;;;;;;;;;;;;;;;5127076;28;19928;-69
2022/06/14 15:24:20;;;;;;;;;;;;;;;;;;5123425;28;19924;-68
2022/06/14 15:26:46;;;;;;;;;;;;;;;;;;5125141;28;19926;-69
2022/06/14 15:29:12;;;;;;;;;;;;;;;;;;5126662;28;19923;-69
2022/06/14 15:31:38;;;;;;;;;;;;;;;;;;5125194;28;19945;-69
2022/06/14 15:34:04;;;;;;;;;;;;;;;;;;5126999;28;19955;-68
2022/06/14 15:36:30;;;;;;;;;;;;;;;;;;5126420;27;20007;-69
2022/06/14 15:38:56;;;;;;;;;;;;;;;;;;5124406;27;20395;-68
2022/06/14 15:41:23;;;;;;;;;;;;;;;;;;5128004;27;19977;-68
2022/06/14 15:43:49;;;;;;;;;;;;;;;;;;5125741;28;19923;-69
2022/06/14 15:46:15;;;;;;;;;;;;;;;;;;5123970;27;19930;-68
2022/06/14 15:48:41;;;;;;;;;;;;;;;;;;5123562;28;19979;-69
2022/06/14 15:51:07;;;;;;;;;;;;;;;;;;5120529;28;19966;-69
2022/06/14 15:53:33;;;;;;;;;;;;;;;;;;5121978;27;20014;-68
2022/06/14 15:55:59;;;;;;;;;;;;;;;;;;5121571;28;19988;-68
2022/06/14 15:58:25;;;;;;;;;;;;;;;;;;5122923;28;19924;-67
2022/06/14 16:00:51;;;;;;;;;;;;;;;;;;5124656;27;19924;-66
2022/06/14 16:03:17;;;;;;;;;;;;;;;;;;5126857;27;19923;-71
2022/06/14 16:05:43;;;;;;;;;;;;;;;;;;5135882;27;19927;-70
2022/06/14 16:08:09;;;;;;;;;;;;;;;;;;5125501;27;19934;-66
2022/06/14 16:10:35;;;;;;;;;;;;;;;;;;5139187;27;19924;-66
2022/06/14 16:13:02;;;;;;;;;;;;;;;;;;5132390;27;19967;-66
2022/06/14 16:15:28;;;;;;;;;;;;;;;;;;5127959;27;19945;-66
2022/06/14 16:17:54;;;;;;;;;;;;;;;;;;5126215;28;19924;-67
2022/06/14 16:20:20;;;;;;;;;;;;;;;;;;5126115;28;19959;-66
2022/06/14 16:22:46;;;;;;;;;;;;;;;;;;5129113;27;19930;-66
2022/06/14 16:25:12;;;;;;;;;;;;;;;;;;5131199;27;19980;-67
2022/06/14 16:27:38;;;;;;;;;;;;;;;;;;5127545;27;19963;-67
2022/06/14 16:30:04;;;;;;;;;;;;;;;;;;5126546;28;19978;-66
2022/06/14 16:32:30;;;;;;;;;;;;;;;;;;5126686;27;19976;-66
2022/06/14 16:34:56;;;;;;;;;;;;;;;;;;5129521;27;20295;-67
2022/06/14 16:37:22;;;;;;;;;;;;;;;;;;5123842;28;19924;-67
2022/06/14 16:39:48;;;;;;;;;;;;;;;;;;5126977;27;19950;-67
2022/06/14 16:42:14;;;;;;;;;;;;;;;;;;5132129;27;20332;-67
2022/06/14 16:44:40;;;;;;;;;;;;;;;;;;5123327;28;19923;-68
2022/06/14 16:47:08;;;;;;;;;;;;;;;;;;5124295;27;19944;-67
2022/06/14 16:49:34;;;;;;;;;;;;;;;;;;5127880;27;19924;-67
2022/06/14 16:52:01;;;;;;;;;;;;;;;;;;5125504;28;19923;-66
2022/06/14 16:54:27;;;;;;;;;;;;;;;;;;5125911;28;19924;-66
2022/06/14 16:56:53;;;;;;;;;;;;;;;;;;5125524;28;19924;-67